createdAt,value
2023-04-20T00:00:24.268Z,3.80
2023-04-20T00:02:50.894Z,4.10
2023-04-20T00:05:17.522Z,4.00
2023-04-20T00:07:44.165Z,4.07
2023-04-20T00:10:10.997Z,4.03
2023-04-20T00:12:37.446Z,3.77
2023-04-20T00:15:04.150Z,4.83
2023-04-20T00:17:31.198Z,4.00
2023-04-20T00:19:57.871Z,4.03
2023-04-20T00:22:25.322Z,4.17
2023-04-20T00:24:52.182Z,4.23
2023-04-20T00:27:18.628Z,4.10
2023-04-20T00:29:45.116Z,4.50
2023-04-20T00:32:11.637Z,4.17
2023-04-20T00:34:38.098Z,4.30
2023-04-20T00:37:04.754Z,3.90
2023-04-20T00:39:31.233Z,4.10
2023-04-20T00:42:06.675Z,3.77
2023-04-20T00:44:33.566Z,4.40
2023-04-20T00:47:00.516Z,3.93
2023-04-20T00:49:29.972Z,3.80
2023-04-20T00:52:01.029Z,4.30
2023-04-20T00:54:28.355Z,3.87
2023-04-20T00:56:56.562Z,3.77
2023-04-20T00:59:23.012Z,3.93
2023-04-20T01:01:49.871Z,3.83
2023-04-20T01:04:16.926Z,4.20
2023-04-20T01:06:43.905Z,3.83
2023-04-20T01:09:10.586Z,4.03
2023-04-20T01:11:37.044Z,3.70
2023-04-20T01:14:03.541Z,3.90
2023-04-20T01:16:30.714Z,4.13
2023-04-20T01:18:57.320Z,4.20
2023-04-20T01:21:23.929Z,3.50
2023-04-20T01:23:50.492Z,3.90
2023-04-20T01:26:17.967Z,3.57
2023-04-20T01:28:44.838Z,3.57
2023-04-20T01:31:11.751Z,3.80
2023-04-20T01:33:38.762Z,3.80
2023-04-20T01:36:06.375Z,3.90
2023-04-20T01:38:34.600Z,3.77
2023-04-20T01:41:01.992Z,3.77
2023-04-20T01:43:28.470Z,3.70
2023-04-20T01:45:54.914Z,3.20
2023-04-20T01:48:21.470Z,3.70
2023-04-20T01:50:51.837Z,3.90
2023-04-20T01:53:18.513Z,3.47
2023-04-20T01:55:44.960Z,3.13
2023-04-20T01:58:11.453Z,3.70
2023-04-20T02:00:37.930Z,3.60
2023-04-20T02:03:04.729Z,4.17
2023-04-20T02:05:31.305Z,5.07
2023-04-20T02:07:57.850Z,4.77
2023-04-20T02:10:24.431Z,4.00
2023-04-20T02:12:51.068Z,4.33
2023-04-20T02:15:17.502Z,6.53
2023-04-20T02:18:03.883Z,7.53
2023-04-20T02:20:30.338Z,8.93
2023-04-20T02:22:56.781Z,8.07
2023-04-20T02:25:23.258Z,8.40
2023-04-20T02:27:49.734Z,8.30
2023-04-20T02:30:16.168Z,7.57
2023-04-20T02:32:42.647Z,7.53
2023-04-20T02:35:09.438Z,6.93
2023-04-20T02:37:35.996Z,6.30
2023-04-20T02:40:02.636Z,6.20
2023-04-20T02:42:29.057Z,5.97
2023-04-20T02:44:55.834Z,5.83
2023-04-20T02:47:22.813Z,6.73
2023-04-20T02:49:49.314Z,6.43
2023-04-20T02:52:15.937Z,7.20
2023-04-20T02:54:42.395Z,7.77
2023-04-20T02:57:08.888Z,7.90
2023-04-20T02:59:35.332Z,7.93
2023-04-20T03:02:01.869Z,7.33
2023-04-20T03:04:28.692Z,7.17
2023-04-20T03:06:55.254Z,8.20
2023-04-20T03:09:22.133Z,7.87
2023-04-20T03:11:49.149Z,8.47
2023-04-20T03:14:15.683Z,8.23
2023-04-20T03:16:42.405Z,7.67
2023-04-20T03:19:18.057Z,6.70
2023-04-20T03:21:45.316Z,7.90
2023-04-20T03:24:11.740Z,7.73
2023-04-20T03:26:38.199Z,7.40
2023-04-20T03:29:04.657Z,6.73
2023-04-20T03:31:31.139Z,6.80
2023-04-20T03:33:57.733Z,6.50
2023-04-20T03:36:24.278Z,7.10
2023-04-20T03:38:50.784Z,6.43
2023-04-20T03:41:17.241Z,6.33
2023-04-20T03:43:43.758Z,6.40
2023-04-20T03:46:10.256Z,6.03
2023-04-20T03:48:36.795Z,5.53
2023-04-20T03:51:03.327Z,5.20
2023-04-20T03:53:29.911Z,5.97
2023-04-20T03:55:56.645Z,6.20
2023-04-20T03:58:23.202Z,5.87
2023-04-20T04:00:49.648Z,5.60
2023-04-20T04:03:16.243Z,5.80
2023-04-20T04:05:42.841Z,5.53
2023-04-20T04:11:26.862Z,5.93
2023-04-20T04:13:53.334Z,5.73
2023-04-20T04:16:19.913Z,5.73
2023-04-20T04:18:49.465Z,5.60
2023-04-20T04:21:15.972Z,5.80
2023-04-20T04:23:42.763Z,5.67
2023-04-20T04:26:12.118Z,5.50
2023-04-20T04:28:38.612Z,6.70
2023-04-20T04:31:07.758Z,5.80
2023-04-20T04:33:34.744Z,6.10
2023-04-20T04:36:01.608Z,6.07
2023-04-20T04:38:28.889Z,6.40
2023-04-20T04:40:56.411Z,6.53
2023-04-20T04:43:24.362Z,6.30
2023-04-20T04:45:50.819Z,6.33
2023-04-20T04:48:17.248Z,5.37
2023-04-20T04:50:43.715Z,5.50
2023-04-20T04:53:10.270Z,5.43
2023-04-20T04:55:36.706Z,6.00
2023-04-20T04:58:03.701Z,5.20
2023-04-20T05:00:31.440Z,5.40
2023-04-20T05:02:58.052Z,5.60
2023-04-20T05:05:25.527Z,5.47
2023-04-20T05:07:51.980Z,5.23
2023-04-20T05:10:18.460Z,21.00
2023-04-20T05:12:44.904Z,9.07
2023-04-20T05:15:11.456Z,13.37
2023-04-20T05:17:38.136Z,8.10
2023-04-20T05:20:06.789Z,5.43
2023-04-20T05:22:39.266Z,5.40
2023-04-20T05:25:06.447Z,5.10
2023-04-20T05:27:33.541Z,5.00
2023-04-20T05:30:06.398Z,4.80
2023-04-20T05:32:43.373Z,5.00
2023-04-20T05:35:09.982Z,5.57
2023-04-20T05:37:36.499Z,4.90
2023-04-20T05:40:02.997Z,5.20
2023-04-20T05:42:29.570Z,6.53
2023-04-20T05:44:56.123Z,4.80
2023-04-20T05:47:22.934Z,5.20
2023-04-20T05:49:49.520Z,4.60
2023-04-20T05:52:15.966Z,4.57
2023-04-20T05:54:42.429Z,4.80
2023-04-20T05:57:08.992Z,5.20
2023-04-20T05:59:35.835Z,4.67
2023-04-20T06:02:02.484Z,4.60
2023-04-20T06:04:30.788Z,5.13
2023-04-20T06:06:57.733Z,5.20
2023-04-20T06:09:27.488Z,4.57
2023-04-20T06:11:53.966Z,4.70
2023-04-20T06:14:20.419Z,4.63
2023-04-20T06:16:46.888Z,4.50
2023-04-20T06:19:31.308Z,4.37
2023-04-20T06:22:00.710Z,4.33
2023-04-20T06:24:28.018Z,4.90
2023-04-20T06:26:55.026Z,4.87
2023-04-20T06:29:21.553Z,4.40
2023-04-20T06:31:48.034Z,4.33
2023-04-20T06:34:15.106Z,4.37
2023-04-20T06:36:44.633Z,4.40
2023-04-20T06:39:14.085Z,4.30
2023-04-20T06:41:40.602Z,5.57
2023-04-20T06:44:07.325Z,6.60
2023-04-20T06:46:33.977Z,8.03
2023-04-20T06:49:00.490Z,4.60
2023-04-20T06:51:27.887Z,4.63
2023-04-20T06:53:54.621Z,5.10
2023-04-20T06:56:21.629Z,4.73
2023-04-20T06:58:48.813Z,5.40
2023-04-20T07:01:15.506Z,4.78
2023-04-20T07:03:42.249Z,4.90
2023-04-20T07:06:11.134Z,4.47
2023-04-20T07:08:38.938Z,4.80
2023-04-20T07:11:05.517Z,4.27
2023-04-20T07:13:33.872Z,4.70
2023-04-20T07:16:00.795Z,4.43
2023-04-20T07:18:27.268Z,4.57
2023-04-20T07:20:54.241Z,4.70
2023-04-20T07:23:21.434Z,4.87
2023-04-20T07:25:48.065Z,4.40
2023-04-20T07:28:14.783Z,4.47
2023-04-20T07:30:41.252Z,5.17
2023-04-20T07:33:08.567Z,4.50
2023-04-20T07:35:35.215Z,4.77
2023-04-20T07:38:01.714Z,4.53
2023-04-20T07:40:28.403Z,5.13
2023-04-20T07:42:54.895Z,4.70
2023-04-20T07:45:21.915Z,4.33
2023-04-20T07:47:51.433Z,4.60
2023-04-20T07:50:18.054Z,4.90
2023-04-20T07:52:44.573Z,5.17
2023-04-20T07:55:17.430Z,7.13
2023-04-20T07:57:44.102Z,6.60
2023-04-20T08:00:11.550Z,4.43
2023-04-20T08:02:38.157Z,4.80
2023-04-20T08:05:29.919Z,4.77
2023-04-20T08:07:56.402Z,4.70
2023-04-20T08:10:22.929Z,5.03
2023-04-20T08:12:52.430Z,5.07
2023-04-20T08:15:20.055Z,5.60
2023-04-20T08:17:46.597Z,5.33
2023-04-20T08:20:13.151Z,5.40
2023-04-20T08:22:39.645Z,5.30
2023-04-20T08:25:06.281Z,4.97
2023-04-20T08:27:32.955Z,5.63
2023-04-20T08:29:59.454Z,5.00
2023-04-20T08:32:26.823Z,4.70
2023-04-20T08:34:54.195Z,5.33
2023-04-20T08:37:21.094Z,4.83
2023-04-20T08:39:47.728Z,4.97
2023-04-20T08:42:14.410Z,4.93
2023-04-20T08:44:40.889Z,5.27
2023-04-20T08:47:09.049Z,4.97
2023-04-20T08:53:22.988Z,4.70
2023-04-20T08:55:49.831Z,4.60
2023-04-20T08:58:17.134Z,4.93
2023-04-20T09:00:50.168Z,4.97
2023-04-20T09:03:16.842Z,4.70
2023-04-20T09:05:44.671Z,5.07
2023-04-20T09:08:11.258Z,4.80
2023-04-20T09:10:42.259Z,5.10
2023-04-20T09:13:09.634Z,5.33
2023-04-20T09:19:03.932Z,4.70
2023-04-20T09:21:31.486Z,4.60
2023-04-20T09:23:57.916Z,4.93
2023-04-20T09:26:24.376Z,5.27
2023-04-20T09:28:50.974Z,5.23
2023-04-20T09:31:18.313Z,4.97
2023-04-20T09:33:44.802Z,5.17
2023-04-20T09:36:11.846Z,4.83
2023-04-20T09:38:38.402Z,4.63
2023-04-20T09:41:05.272Z,5.00
2023-04-20T09:43:32.360Z,4.67
2023-04-20T09:45:59.358Z,4.67
2023-04-20T09:48:26.276Z,4.73
2023-04-20T09:54:41.962Z,4.63
2023-04-20T09:57:09.631Z,5.27
2023-04-20T09:59:36.234Z,5.00
2023-04-20T10:02:03.012Z,4.60
2023-04-20T10:04:29.948Z,4.80
2023-04-20T10:07:03.561Z,5.00
2023-04-20T10:09:31.448Z,4.73
2023-04-20T10:12:08.111Z,8.77
2023-04-20T10:14:35.784Z,4.63
2023-04-20T10:17:03.783Z,4.60
2023-04-20T10:19:56.943Z,4.50
2023-04-20T10:22:30.808Z,4.73
2023-04-20T10:24:57.383Z,4.53
2023-04-20T10:27:23.920Z,4.87
2023-04-20T10:29:50.413Z,4.60
2023-04-20T10:32:23.290Z,5.00
2023-04-20T10:34:59.978Z,4.73
2023-04-20T10:37:26.583Z,4.53
2023-04-20T10:39:53.054Z,4.30
2023-04-20T10:42:19.544Z,4.97
2023-04-20T10:45:08.711Z,4.70
2023-04-20T10:47:37.682Z,4.70
2023-04-20T10:50:08.086Z,4.67
2023-04-20T10:52:36.224Z,4.80
2023-04-20T10:58:30.608Z,4.97
2023-04-20T11:00:59.859Z,4.87
2023-04-20T11:03:27.538Z,5.20
2023-04-20T11:05:54.118Z,4.80
2023-04-20T11:08:20.631Z,5.10
2023-04-20T11:10:47.121Z,4.73
2023-04-20T11:13:20.560Z,4.60
2023-04-20T11:15:47.037Z,4.67
2023-04-20T11:18:13.592Z,5.10
2023-04-20T11:20:52.571Z,5.23
2023-04-20T11:23:25.372Z,5.20
2023-04-20T11:25:52.763Z,5.03
2023-04-20T11:28:19.490Z,5.27
2023-04-20T11:30:48.066Z,5.30
2023-04-20T11:33:14.738Z,5.50
2023-04-20T11:35:42.214Z,5.10
2023-04-20T11:38:08.800Z,5.07
2023-04-20T11:40:35.479Z,4.70
2023-04-20T11:43:02.211Z,5.20
2023-04-20T11:45:35.205Z,4.80
2023-04-20T11:48:03.536Z,5.10
2023-04-20T11:50:30.516Z,4.97
2023-04-20T11:52:57.079Z,5.03
2023-04-20T11:55:23.614Z,5.17
2023-04-20T11:57:50.410Z,5.70
2023-04-20T12:00:18.152Z,5.20
2023-04-20T12:02:44.882Z,4.70
2023-04-20T12:05:12.112Z,4.90
2023-04-20T12:07:38.668Z,5.30
2023-04-20T12:10:05.744Z,5.50
2023-04-20T12:12:32.207Z,5.17
2023-04-20T12:14:58.669Z,5.43
2023-04-20T12:17:25.258Z,5.23
2023-04-20T12:19:54.446Z,5.67
2023-04-20T12:22:30.092Z,4.97
2023-04-20T12:24:56.545Z,5.30
2023-04-20T12:27:23.052Z,4.83
2023-04-20T12:29:49.644Z,13.83
2023-04-20T12:32:16.060Z,6.60
2023-04-20T12:34:42.512Z,5.80
2023-04-20T12:37:09.344Z,5.60
2023-04-20T12:39:35.834Z,4.97
2023-04-20T12:42:05.254Z,5.47
2023-04-20T12:44:31.833Z,5.23
2023-04-20T12:46:58.349Z,4.60
2023-04-20T12:49:27.726Z,4.80
2023-04-20T12:51:54.253Z,5.23
2023-04-20T12:54:20.753Z,4.77
2023-04-20T12:56:47.288Z,4.67
2023-04-20T12:59:14.385Z,5.00
2023-04-20T13:01:41.007Z,4.73
2023-04-20T13:04:07.628Z,5.10
2023-04-20T13:06:34.457Z,5.27
2023-04-20T13:09:01.214Z,5.23
2023-04-20T13:11:27.652Z,6.70
2023-04-20T13:13:54.139Z,6.17
2023-04-20T13:16:20.908Z,5.33
2023-04-20T13:18:56.475Z,4.90
2023-04-20T13:21:22.946Z,5.03
2023-04-20T13:23:49.373Z,5.13
2023-04-20T13:26:16.010Z,5.67
2023-04-20T13:28:45.360Z,4.80
2023-04-20T13:35:03.999Z,5.00
2023-04-20T13:37:33.191Z,5.37
2023-04-20T13:40:00.185Z,4.83
2023-04-20T13:42:26.675Z,5.30
2023-04-20T13:44:53.126Z,4.90
2023-04-20T13:47:20.797Z,5.43
2023-04-20T13:49:47.274Z,5.40
2023-04-20T13:52:13.786Z,5.40
2023-04-20T13:54:40.322Z,5.27
2023-04-20T13:57:06.774Z,5.50
2023-04-20T13:59:33.253Z,5.07
2023-04-20T14:01:59.788Z,5.30
2023-04-20T14:04:26.610Z,5.00
2023-04-20T14:06:53.252Z,5.07
2023-04-20T14:09:19.724Z,5.20
2023-04-20T14:15:32.590Z,4.73
2023-04-20T14:18:00.553Z,4.60
2023-04-20T14:20:27.539Z,4.57
2023-04-20T14:22:53.994Z,4.23
2023-04-20T14:25:20.732Z,4.50
2023-04-20T14:27:47.248Z,4.90
2023-04-20T14:30:14.117Z,5.07
2023-04-20T14:36:08.858Z,4.80
2023-04-20T14:38:35.452Z,4.63
2023-04-20T14:41:01.897Z,4.53
2023-04-20T14:43:28.516Z,7.10
2023-04-20T14:45:55.446Z,7.43
2023-04-20T14:48:24.143Z,6.53
2023-04-20T14:50:50.716Z,4.40
2023-04-20T14:53:17.400Z,4.57
2023-04-20T14:55:43.864Z,4.53
2023-04-20T14:58:10.401Z,4.70
2023-04-20T15:00:37.003Z,4.40
2023-04-20T15:03:03.852Z,4.10
2023-04-20T15:05:30.826Z,4.10
2023-04-20T15:07:57.658Z,3.97
2023-04-20T15:10:24.224Z,4.13
2023-04-20T15:12:50.714Z,4.33
2023-04-20T15:15:17.310Z,3.87
2023-04-20T15:17:44.936Z,4.30
2023-04-20T15:20:11.574Z,4.27
2023-04-20T15:22:38.245Z,4.30
2023-04-20T15:25:05.470Z,4.30
2023-04-20T15:27:31.910Z,4.10
2023-04-20T15:29:58.470Z,4.87
2023-04-20T15:32:25.575Z,4.00
2023-04-20T15:34:52.217Z,4.10
2023-04-20T15:37:18.772Z,4.53
2023-04-20T15:39:45.370Z,4.47
2023-04-20T15:42:11.976Z,4.37
2023-04-20T15:44:43.632Z,4.53
2023-04-20T15:47:10.236Z,4.60
2023-04-20T15:49:40.593Z,3.90
2023-04-20T15:52:08.581Z,4.47
2023-04-20T15:54:35.577Z,8.50
2023-04-20T15:57:03.317Z,19.83
2023-04-20T15:59:30.317Z,8.80
2023-04-20T16:01:56.971Z,7.30
2023-04-20T16:04:23.902Z,6.30
2023-04-20T16:06:57.215Z,4.97
2023-04-20T16:09:24.038Z,4.70
2023-04-20T16:11:50.740Z,4.73
2023-04-20T16:14:17.490Z,4.83
2023-04-20T16:16:46.257Z,4.50
2023-04-20T16:19:14.596Z,5.47
2023-04-20T16:21:41.224Z,19.00
2023-04-20T16:24:07.805Z,14.73
2023-04-20T16:26:34.386Z,5.10
2023-04-20T16:29:01.254Z,3.60
2023-04-20T16:31:27.986Z,3.60
2023-04-20T16:33:54.485Z,3.57
2023-04-20T16:36:21.301Z,3.93
2023-04-20T16:38:47.779Z,3.50
2023-04-20T16:41:14.480Z,3.90
2023-04-20T16:43:41.203Z,3.70
2023-04-20T16:46:11.714Z,3.83
2023-04-20T16:48:38.220Z,3.70
2023-04-20T16:51:04.731Z,3.95
2023-04-20T16:53:31.209Z,3.63
2023-04-20T16:56:00.876Z,4.30
2023-04-20T16:58:27.521Z,3.57
2023-04-20T17:00:54.029Z,4.70
2023-04-20T17:03:21.447Z,3.60
2023-04-20T17:05:48.061Z,3.77
2023-04-20T17:08:14.588Z,4.73
2023-04-20T17:10:41.122Z,4.00
2023-04-20T17:13:07.667Z,3.60
2023-04-20T17:15:34.144Z,3.50
2023-04-20T17:18:00.869Z,3.23
2023-04-20T17:20:27.381Z,3.37
2023-04-20T17:22:53.882Z,3.33
2023-04-20T17:25:20.367Z,3.20
2023-04-20T17:27:47.173Z,3.33
2023-04-20T17:30:13.951Z,3.37
2023-04-20T17:32:40.567Z,3.50
2023-04-20T17:35:07.265Z,3.20
2023-04-20T17:37:35.348Z,3.57
2023-04-20T17:40:02.134Z,4.00
2023-04-20T17:42:28.668Z,4.07
2023-04-20T17:44:55.238Z,3.90
2023-04-20T17:47:21.691Z,3.63
2023-04-20T17:49:48.268Z,3.80
2023-04-20T17:52:19.343Z,4.80
2023-04-20T17:54:46.052Z,4.67
2023-04-20T17:57:14.128Z,4.20
2023-04-20T17:59:42.323Z,4.17
2023-04-20T18:02:12.365Z,5.03
2023-04-20T18:04:39.167Z,5.37
2023-04-20T18:07:06.111Z,4.93
2023-04-20T18:09:32.651Z,6.40
2023-04-20T18:11:59.105Z,7.73
2023-04-20T18:14:25.596Z,7.37
2023-04-20T18:16:53.903Z,16.80
2023-04-20T18:19:20.552Z,11.67
2023-04-20T18:21:47.149Z,8.17
2023-04-20T18:24:13.758Z,19.60
2023-04-20T18:26:40.315Z,15.90
2023-04-20T18:29:07.028Z,12.03
2023-04-20T18:31:33.699Z,11.37
2023-04-20T18:34:00.290Z,7.70
2023-04-20T18:36:26.915Z,8.00
2023-04-20T18:38:54.128Z,12.10
2023-04-20T18:41:22.652Z,12.83
2023-04-20T18:43:52.430Z,16.33
2023-04-20T18:46:18.992Z,23.77
2023-04-20T18:48:48.588Z,15.43
2023-04-20T18:51:15.275Z,18.23
2023-04-20T18:53:41.720Z,18.30
2023-04-20T18:56:10.146Z,17.53
2023-04-20T18:58:36.982Z,16.43
2023-04-20T19:01:04.376Z,14.67
2023-04-20T19:03:32.133Z,12.83
2023-04-20T19:05:58.864Z,12.50
2023-04-20T19:08:25.560Z,11.10
2023-04-20T19:10:56.437Z,8.30
2023-04-20T19:13:23.217Z,8.30
2023-04-20T19:15:50.775Z,9.23
2023-04-20T19:18:17.254Z,7.60
2023-04-20T19:20:43.869Z,9.10
2023-04-20T19:23:10.665Z,9.17
2023-04-20T19:25:38.162Z,8.50
2023-04-20T19:28:04.786Z,11.00
2023-04-20T19:30:31.230Z,10.80
2023-04-20T19:32:57.778Z,12.90
2023-04-20T19:35:24.556Z,13.37
2023-04-20T19:37:51.079Z,17.33
2023-04-20T19:40:26.812Z,18.40
2023-04-20T19:42:53.254Z,12.83
2023-04-20T19:45:20.007Z,10.87
2023-04-20T19:47:46.649Z,9.00
2023-04-20T19:50:14.028Z,7.30
2023-04-20T19:52:40.616Z,9.17
2023-04-20T19:55:07.275Z,9.23
2023-04-20T19:57:33.827Z,10.10
2023-04-20T20:03:52.931Z,9.00
2023-04-20T20:06:19.697Z,8.10
2023-04-20T20:08:46.625Z,5.93
2023-04-20T20:11:13.133Z,6.43
2023-04-20T20:13:39.691Z,5.90
2023-04-20T20:16:16.242Z,7.70
2023-04-20T20:18:43.322Z,4.97
2023-04-20T20:21:09.906Z,8.33
2023-04-20T20:23:36.565Z,6.87
2023-04-20T20:26:03.204Z,7.40
2023-04-20T20:28:29.794Z,10.07
2023-04-20T20:30:56.489Z,8.07
2023-04-20T20:33:23.093Z,12.63
2023-04-20T20:35:49.643Z,8.70
2023-04-20T20:42:04.114Z,10.40
2023-04-20T20:44:33.236Z,12.00
2023-04-20T20:47:03.007Z,9.77
2023-04-20T20:49:29.643Z,7.73
2023-04-20T20:52:11.654Z,8.93
2023-04-20T20:54:42.381Z,32.10
2023-04-20T20:57:09.349Z,28.50
2023-04-20T20:59:35.953Z,61.13
2023-04-20T21:02:03.605Z,63.97
2023-04-20T21:04:32.430Z,30.23
2023-04-20T21:06:59.094Z,9.00
2023-04-20T21:09:25.624Z,16.03
2023-04-20T21:11:52.135Z,29.10
2023-04-20T21:14:18.713Z,30.07
2023-04-20T21:16:45.283Z,10.60
2023-04-20T21:19:11.951Z,8.20
2023-04-20T21:21:39.846Z,4.60
2023-04-20T21:24:06.788Z,4.33
2023-04-20T21:26:35.990Z,4.33
2023-04-20T21:29:05.515Z,7.70
2023-04-20T21:31:32.589Z,4.83
2023-04-20T21:34:04.292Z,4.93
2023-04-20T21:36:31.016Z,6.47
2023-04-20T21:38:57.547Z,7.07
2023-04-20T21:41:26.612Z,9.37
2023-04-20T21:43:53.349Z,7.90
2023-04-20T21:46:20.050Z,7.77
2023-04-20T21:48:47.836Z,6.43
2023-04-20T21:51:14.936Z,6.30
2023-04-20T21:53:41.578Z,5.03
2023-04-20T21:56:08.066Z,5.37
2023-04-20T21:58:34.658Z,6.03
2023-04-20T22:01:01.209Z,4.07
2023-04-20T22:11:12.928Z,8.50
2023-04-20T22:13:39.505Z,5.87
2023-04-20T22:16:06.254Z,7.70
2023-04-20T22:18:32.778Z,6.80
2023-04-20T22:20:59.259Z,6.10
2023-04-20T22:23:25.785Z,6.93
2023-04-20T22:25:52.336Z,6.20
2023-04-20T22:28:19.004Z,6.80
2023-04-20T22:30:45.450Z,5.70
2023-04-20T22:33:20.917Z,6.27
2023-04-20T22:35:47.367Z,9.47
2023-04-20T22:38:13.854Z,4.13
2023-04-20T22:40:40.638Z,3.77
2023-04-20T22:43:07.138Z,3.50
2023-04-20T22:45:33.589Z,4.70
2023-04-20T22:48:00.229Z,3.97
2023-04-20T22:50:26.830Z,6.30
2023-04-20T22:52:53.306Z,8.70
2023-04-20T22:55:19.884Z,5.73
2023-04-20T22:57:46.387Z,3.80
2023-04-20T23:00:14.007Z,6.03
2023-04-20T23:02:41.025Z,4.90
2023-04-20T23:05:07.833Z,4.77
2023-04-20T23:07:34.314Z,4.60
2023-04-20T23:10:01.554Z,6.10
2023-04-20T23:12:29.529Z,8.17
2023-04-20T23:14:56.736Z,7.53
2023-04-20T23:17:23.500Z,8.37
2023-04-20T23:19:51.052Z,6.33
2023-04-20T23:22:17.741Z,5.47
2023-04-20T23:24:44.255Z,5.53
2023-04-20T23:27:10.790Z,3.77
2023-04-20T23:29:37.234Z,3.30
2023-04-20T23:32:04.028Z,3.73
2023-04-20T23:34:30.762Z,4.00
2023-04-20T23:36:57.213Z,3.60
2023-04-20T23:39:23.688Z,3.83
2023-04-20T23:41:50.315Z,4.03
2023-04-20T23:44:16.817Z,3.50
2023-04-20T23:46:43.402Z,4.23
2023-04-20T23:49:09.934Z,3.40
2023-04-20T23:51:36.367Z,4.00
2023-04-20T23:54:03.548Z,3.87
2023-04-20T23:56:29.991Z,4.00
2023-04-20T23:58:56.476Z,3.80
